createdAt,value
2023-08-02T00:00:52.819Z,0.00
2023-08-02T00:01:52.898Z,0.00
2023-08-02T00:02:52.838Z,0.00
2023-08-02T00:04:09.138Z,0.00
2023-08-02T00:04:54.875Z,0.00
2023-08-02T00:05:52.875Z,0.00
2023-08-02T00:06:52.867Z,0.00
2023-08-02T00:07:53.836Z,0.00
2023-08-02T00:08:52.762Z,0.00
2023-08-02T00:09:52.731Z,0.00
2023-08-02T00:10:52.753Z,0.00
2023-08-02T00:11:52.729Z,0.00
2023-08-02T00:12:52.772Z,0.00
2023-08-02T00:13:52.776Z,0.00
2023-08-02T00:14:52.674Z,0.00
2023-08-02T00:15:52.684Z,0.00
2023-08-02T00:16:52.723Z,0.00
2023-08-02T00:17:52.718Z,0.00
2023-08-02T00:18:52.655Z,0.00
2023-08-02T00:19:52.632Z,0.00
2023-08-02T00:20:52.633Z,0.00
2023-08-02T00:21:52.614Z,0.00
2023-08-02T00:22:52.618Z,0.00
2023-08-02T00:23:52.605Z,0.00
2023-08-02T00:24:52.589Z,0.00
2023-08-02T00:25:52.589Z,0.00
2023-08-02T00:26:52.579Z,0.00
2023-08-02T00:27:52.575Z,0.00
2023-08-02T00:28:52.557Z,0.00
2023-08-02T00:29:52.544Z,0.00
2023-08-02T00:30:52.556Z,0.00
2023-08-02T00:31:52.526Z,0.00
2023-08-02T00:32:52.528Z,0.00
2023-08-02T00:33:52.484Z,0.00
2023-08-02T00:34:52.477Z,0.00
2023-08-02T00:35:52.510Z,0.00
2023-08-02T00:36:52.496Z,0.00
2023-08-02T00:37:52.475Z,0.00
2023-08-02T00:38:52.437Z,0.00
2023-08-02T00:39:52.436Z,0.00
2023-08-02T00:40:52.448Z,0.00
2023-08-02T00:41:52.409Z,0.00
2023-08-02T00:42:52.393Z,0.00
2023-08-02T00:43:52.390Z,0.00
2023-08-02T00:44:52.377Z,0.00
2023-08-02T00:45:52.438Z,0.00
2023-08-02T00:46:52.496Z,0.00
2023-08-02T00:47:52.383Z,0.00
2023-08-02T00:48:53.338Z,0.00
2023-08-02T00:49:52.352Z,0.00
2023-08-02T00:50:52.329Z,0.00
2023-08-02T00:51:52.311Z,0.00
2023-08-02T00:52:52.287Z,0.00
2023-08-02T00:53:52.284Z,0.00
2023-08-02T00:54:52.302Z,0.00
2023-08-02T00:55:52.261Z,0.00
2023-08-02T00:56:52.246Z,0.00
2023-08-02T00:57:52.234Z,0.00
2023-08-02T00:58:52.232Z,0.00
2023-08-02T00:59:52.237Z,0.00
2023-08-02T01:00:52.204Z,0.00
2023-08-02T01:01:52.246Z,0.00
2023-08-02T01:02:52.247Z,0.00
2023-08-02T01:03:52.173Z,0.00
2023-08-02T01:04:52.188Z,0.00
2023-08-02T01:05:52.185Z,0.00
2023-08-02T01:06:52.212Z,0.00
2023-08-02T01:07:52.144Z,0.00
2023-08-02T01:08:52.206Z,0.00
2023-08-02T01:09:52.149Z,0.00
2023-08-02T01:10:52.112Z,0.00
2023-08-02T01:11:52.104Z,0.00
2023-08-02T01:12:52.081Z,0.00
2023-08-02T01:13:52.092Z,0.00
2023-08-02T01:14:55.954Z,0.00
2023-08-02T01:15:53.105Z,0.00
2023-08-02T01:16:52.073Z,0.00
2023-08-02T01:17:52.143Z,0.00
2023-08-02T01:18:52.050Z,0.00
2023-08-02T01:19:52.022Z,0.00
2023-08-02T01:20:52.004Z,0.00
2023-08-02T01:21:51.993Z,0.00
2023-08-02T01:22:52.017Z,0.00
2023-08-02T01:23:52.007Z,0.00
2023-08-02T01:24:51.956Z,0.00
2023-08-02T01:25:51.959Z,0.00
2023-08-02T01:26:51.963Z,0.00
2023-08-02T01:27:51.999Z,0.00
2023-08-02T01:28:51.915Z,0.00
2023-08-02T01:29:51.918Z,0.00
2023-08-02T01:30:51.906Z,0.00
2023-08-02T01:31:51.918Z,0.00
2023-08-02T01:32:51.981Z,0.00
2023-08-02T01:33:51.862Z,0.00
2023-08-02T01:34:51.861Z,0.00
2023-08-02T01:35:51.843Z,0.00
2023-08-02T01:36:51.892Z,0.00
2023-08-02T01:37:51.867Z,0.00
2023-08-02T01:38:51.815Z,0.00
2023-08-02T01:39:51.815Z,0.00
2023-08-02T01:40:51.805Z,0.00
2023-08-02T01:41:51.832Z,0.00
2023-08-02T01:42:51.796Z,0.00
2023-08-02T01:43:51.772Z,0.00
2023-08-02T01:44:51.754Z,0.00
2023-08-02T01:45:51.790Z,0.00
2023-08-02T01:46:51.764Z,0.00
2023-08-02T01:47:51.743Z,0.00
2023-08-02T01:48:51.723Z,0.00
2023-08-02T01:49:51.711Z,0.00
2023-08-02T01:50:51.742Z,0.00
2023-08-02T01:51:51.736Z,0.00
2023-08-02T01:52:51.685Z,0.00
2023-08-02T01:53:51.679Z,0.00
2023-08-02T01:54:51.654Z,0.00
2023-08-02T01:55:51.683Z,0.00
2023-08-02T01:56:51.654Z,0.00
2023-08-02T01:57:51.621Z,0.00
2023-08-02T01:58:51.619Z,0.00
2023-08-02T01:59:51.609Z,0.00
2023-08-02T02:00:51.644Z,0.00
2023-08-02T02:01:51.595Z,0.00
2023-08-02T02:02:51.673Z,0.00
2023-08-02T02:03:51.560Z,0.00
2023-08-02T02:04:51.581Z,0.00
2023-08-02T02:05:51.570Z,0.00
2023-08-02T02:06:51.544Z,0.00
2023-08-02T02:07:51.516Z,0.00
2023-08-02T02:08:51.510Z,0.00
2023-08-02T02:09:51.526Z,0.00
2023-08-02T02:10:51.498Z,0.00
2023-08-02T02:11:51.480Z,0.00
2023-08-02T02:12:51.482Z,0.00
2023-08-02T02:13:51.459Z,0.00
2023-08-02T02:14:51.475Z,0.00
2023-08-02T02:15:51.537Z,0.00
2023-08-02T02:16:51.445Z,0.00
2023-08-02T02:17:51.447Z,0.00
2023-08-02T02:18:51.434Z,0.00
2023-08-02T02:19:51.438Z,0.00
2023-08-02T02:20:51.390Z,0.00
2023-08-02T02:21:51.398Z,0.00
2023-08-02T02:22:51.371Z,0.00
2023-08-02T02:23:51.412Z,0.00
2023-08-02T02:24:51.350Z,0.00
2023-08-02T02:25:51.355Z,0.00
2023-08-02T02:26:51.334Z,0.00
2023-08-02T02:27:51.343Z,0.00
2023-08-02T02:28:51.342Z,0.00
2023-08-02T02:29:51.292Z,0.00
2023-08-02T02:30:51.290Z,0.00
2023-08-02T02:31:51.301Z,0.00
2023-08-02T02:32:51.322Z,0.00
2023-08-02T02:33:51.260Z,0.00
2023-08-02T02:34:51.263Z,0.00
2023-08-02T02:35:51.254Z,0.00
2023-08-02T02:36:52.243Z,0.00
2023-08-02T02:37:51.236Z,0.00
2023-08-02T02:38:51.206Z,0.00
2023-08-02T02:39:51.200Z,0.00
2023-08-02T02:40:51.196Z,0.00
2023-08-02T02:41:51.199Z,0.00
2023-08-02T02:42:51.184Z,0.00
2023-08-02T02:43:51.157Z,0.00
2023-08-02T02:44:51.182Z,0.00
2023-08-02T02:45:51.140Z,0.00
2023-08-02T02:46:51.195Z,0.00
2023-08-02T02:47:51.149Z,0.00
2023-08-02T02:48:51.124Z,0.00
2023-08-02T02:49:51.100Z,0.00
2023-08-02T02:50:51.105Z,0.00
2023-08-02T02:51:51.098Z,0.00
2023-08-02T02:52:51.064Z,0.00
2023-08-02T02:53:51.057Z,0.00
2023-08-02T02:54:51.052Z,0.00
2023-08-02T02:55:51.053Z,0.00
2023-08-02T02:56:51.054Z,0.00
2023-08-02T02:57:51.017Z,0.00
2023-08-02T02:58:51.005Z,0.00
2023-08-02T02:59:50.998Z,0.00
2023-08-02T03:00:51.040Z,0.00
2023-08-02T03:01:51.020Z,0.00
2023-08-02T03:02:51.061Z,0.00
2023-08-02T03:03:50.962Z,0.00
2023-08-02T03:04:50.944Z,0.00
2023-08-02T03:05:50.960Z,0.00
2023-08-02T03:06:50.989Z,0.00
2023-08-02T03:07:50.915Z,0.00
2023-08-02T03:08:50.906Z,0.00
2023-08-02T03:09:50.949Z,0.00
2023-08-02T03:10:50.906Z,4.00
2023-08-02T03:11:50.888Z,4.00
2023-08-02T03:12:50.879Z,4.00
2023-08-02T03:13:50.857Z,0.00
2023-08-02T03:14:50.870Z,0.00
2023-08-02T03:15:50.849Z,4.00
2023-08-02T03:16:50.873Z,4.00
2023-08-02T03:17:50.856Z,0.00
2023-08-02T03:18:50.807Z,4.00
2023-08-02T03:19:50.830Z,4.00
2023-08-02T03:20:50.791Z,4.00
2023-08-02T03:21:50.797Z,4.00
2023-08-02T03:22:50.786Z,4.00
2023-08-02T03:23:50.778Z,8.00
2023-08-02T03:24:50.777Z,8.00
2023-08-02T03:25:50.741Z,8.00
2023-08-02T03:26:50.740Z,12.00
2023-08-02T03:27:50.731Z,12.00
2023-08-02T03:28:50.732Z,16.00
2023-08-02T03:29:50.705Z,16.00
2023-08-02T03:30:50.722Z,20.00
2023-08-02T03:31:50.680Z,24.00
2023-08-02T03:32:50.707Z,28.00
2023-08-02T03:33:50.677Z,28.00
2023-08-02T03:34:50.658Z,32.00
2023-08-02T03:35:50.650Z,36.00
2023-08-02T03:36:50.647Z,40.00
2023-08-02T03:37:50.655Z,44.00
2023-08-02T03:38:50.653Z,48.00
2023-08-02T03:39:50.606Z,52.00
2023-08-02T03:40:50.600Z,60.00
2023-08-02T03:41:51.577Z,64.00
2023-08-02T03:42:50.606Z,60.00
2023-08-02T03:43:50.555Z,60.00
2023-08-02T03:44:50.553Z,52.00
2023-08-02T03:45:50.578Z,52.00
2023-08-02T03:46:50.580Z,56.00
2023-08-02T03:47:50.621Z,56.00
2023-08-02T03:48:50.529Z,68.00
2023-08-02T03:49:50.511Z,72.00
2023-08-02T03:50:50.498Z,72.00
2023-08-02T03:51:50.505Z,76.00
2023-08-02T03:52:50.500Z,84.00
2023-08-02T03:53:50.457Z,96.00
2023-08-02T03:54:50.456Z,116.00
2023-08-02T03:55:50.474Z,136.00
2023-08-02T03:56:50.522Z,140.00
2023-08-02T03:57:50.447Z,160.00
2023-08-02T03:58:50.419Z,160.00
2023-08-02T03:59:50.403Z,164.00
2023-08-02T04:00:50.419Z,168.00
2023-08-02T04:01:50.428Z,184.00
2023-08-02T04:02:50.426Z,192.00
2023-08-02T04:03:50.397Z,192.00
2023-08-02T04:04:50.364Z,212.00
2023-08-02T04:05:50.436Z,212.00
2023-08-02T04:06:50.409Z,228.00
2023-08-02T04:07:50.326Z,244.00
2023-08-02T04:08:50.312Z,252.00
2023-08-02T04:09:50.294Z,244.00
2023-08-02T04:10:50.310Z,288.00
2023-08-02T04:11:50.277Z,360.00
2023-08-02T04:12:50.271Z,336.00
2023-08-02T04:13:50.265Z,308.00
2023-08-02T04:14:50.252Z,332.00
2023-08-02T04:15:50.275Z,332.00
2023-08-02T04:16:50.286Z,400.00
2023-08-02T04:17:50.354Z,524.00
2023-08-02T04:18:50.228Z,628.00
2023-08-02T04:19:50.218Z,704.00
2023-08-02T04:20:50.209Z,748.00
2023-08-02T04:21:50.197Z,812.00
2023-08-02T04:22:50.168Z,836.00
2023-08-02T04:23:50.168Z,772.00
2023-08-02T04:24:50.195Z,724.00
2023-08-02T04:25:50.160Z,700.00
2023-08-02T04:26:50.138Z,620.00
2023-08-02T04:27:50.148Z,536.00
2023-08-02T04:28:50.108Z,552.00
2023-08-02T04:29:50.128Z,552.00
2023-08-02T04:30:50.090Z,536.00
2023-08-02T04:31:50.154Z,560.00
2023-08-02T04:32:50.120Z,640.00
2023-08-02T04:33:50.052Z,744.00
2023-08-02T04:34:50.070Z,872.00
2023-08-02T04:35:50.037Z,988.00
2023-08-02T04:36:50.058Z,1064.00
2023-08-02T04:37:50.021Z,1156.00
2023-08-02T04:38:50.021Z,1232.00
2023-08-02T04:39:50.027Z,1260.00
2023-08-02T04:40:50.014Z,1276.00
2023-08-02T04:41:49.983Z,1384.00
2023-08-02T04:42:49.983Z,1528.00
2023-08-02T04:43:49.980Z,1728.00
2023-08-02T04:44:49.946Z,1924.00
2023-08-02T04:45:49.970Z,1956.00
2023-08-02T04:46:49.942Z,1928.00
2023-08-02T04:47:49.985Z,1872.00
2023-08-02T04:48:49.951Z,1768.00
2023-08-02T04:49:49.908Z,1700.00
2023-08-02T04:50:49.895Z,1696.00
2023-08-02T04:51:49.880Z,1736.00
2023-08-02T04:52:49.880Z,1828.00
2023-08-02T04:53:49.897Z,2044.00
2023-08-02T04:54:49.848Z,2256.00
2023-08-02T04:55:49.839Z,2288.00
2023-08-02T04:56:49.835Z,2276.00
2023-08-02T04:57:49.839Z,2324.00
2023-08-02T04:58:49.814Z,2416.00
2023-08-02T04:59:49.840Z,2572.00
2023-08-02T05:00:49.799Z,2692.00
2023-08-02T05:01:49.860Z,2688.00
2023-08-02T05:02:49.872Z,2660.00
2023-08-02T05:03:49.786Z,2696.00
2023-08-02T05:04:49.757Z,2676.00
2023-08-02T05:05:49.747Z,2604.00
2023-08-02T05:06:49.743Z,2616.00
2023-08-02T05:07:49.783Z,2716.00
2023-08-02T05:08:49.707Z,2904.00
2023-08-02T05:09:49.716Z,3004.00
2023-08-02T05:10:49.680Z,2980.00
2023-08-02T05:11:49.705Z,2968.00
2023-08-02T05:12:49.673Z,3024.00
2023-08-02T05:13:49.651Z,3116.00
2023-08-02T05:14:49.649Z,3136.00
2023-08-02T05:16:21.580Z,3180.00
2023-08-02T05:16:49.644Z,3332.00
2023-08-02T05:17:49.746Z,3484.00
2023-08-02T05:18:49.596Z,3664.00
2023-08-02T05:19:49.595Z,3832.00
2023-08-02T05:20:49.605Z,3948.00
2023-08-02T05:21:49.604Z,4072.00
2023-08-02T05:22:49.624Z,4200.00
2023-08-02T05:23:50.672Z,4272.00
2023-08-02T05:24:49.599Z,4268.00
2023-08-02T05:25:49.576Z,4172.00
2023-08-02T05:26:49.532Z,3936.00
2023-08-02T05:27:49.520Z,3600.00
2023-08-02T05:28:49.511Z,3352.00
2023-08-02T05:29:49.500Z,3244.00
2023-08-02T05:30:49.524Z,3104.00
2023-08-02T05:31:49.514Z,3084.00
2023-08-02T05:32:49.550Z,3116.00
2023-08-02T05:33:49.462Z,3132.00
2023-08-02T05:34:49.478Z,3136.00
2023-08-02T05:35:49.467Z,3168.00
2023-08-02T05:36:49.430Z,3212.00
2023-08-02T05:37:49.432Z,3288.00
2023-08-02T05:38:49.408Z,3428.00
2023-08-02T05:39:49.427Z,3640.00
2023-08-02T05:40:49.387Z,3888.00
2023-08-02T05:41:49.379Z,4004.00
2023-08-02T05:42:49.372Z,4024.00
2023-08-02T05:43:49.372Z,3936.00
2023-08-02T05:44:49.381Z,3928.00
2023-08-02T05:45:49.355Z,4268.00
2023-08-02T05:46:49.322Z,5068.00
2023-08-02T05:47:49.383Z,5444.00
2023-08-02T05:48:49.328Z,5400.00
2023-08-02T05:49:49.336Z,5188.00
2023-08-02T05:50:49.284Z,5148.00
2023-08-02T05:51:49.281Z,5152.00
2023-08-02T05:52:49.286Z,5280.00
2023-08-02T05:53:49.282Z,5824.00
2023-08-02T05:54:49.250Z,6360.00
2023-08-02T05:55:49.240Z,6600.00
2023-08-02T05:56:49.225Z,6532.00
2023-08-02T05:57:49.239Z,6272.00
2023-08-02T05:58:49.220Z,6004.00
2023-08-02T05:59:49.201Z,5772.00
2023-08-02T06:00:50.873Z,5640.00
2023-08-02T06:01:49.260Z,5500.00
2023-08-02T06:02:49.257Z,5368.00
2023-08-02T06:03:49.244Z,5112.00
2023-08-02T06:04:49.190Z,4896.00
2023-08-02T06:05:49.142Z,4864.00
2023-08-02T06:06:49.191Z,5032.00
2023-08-02T06:07:49.140Z,5316.00
2023-08-02T06:08:49.108Z,5608.00
2023-08-02T06:09:49.116Z,5704.00
2023-08-02T06:10:49.092Z,5604.00
2023-08-02T06:11:49.084Z,5400.00
2023-08-02T06:12:49.082Z,5236.00
2023-08-02T06:13:49.064Z,4912.00
2023-08-02T06:14:49.045Z,4496.00
2023-08-02T06:15:49.064Z,4124.00
2023-08-02T06:16:49.045Z,4156.00
2023-08-02T06:17:49.088Z,4604.00
2023-08-02T06:18:49.010Z,5020.00
2023-08-02T06:19:48.992Z,5216.00
2023-08-02T06:20:48.994Z,5068.00
2023-08-02T06:21:48.996Z,4576.00
2023-08-02T06:22:48.977Z,4056.00
2023-08-02T06:23:49.018Z,3840.00
2023-08-02T06:24:48.946Z,3776.00
2023-08-02T06:25:48.941Z,3740.00
2023-08-02T06:26:48.933Z,3948.00
2023-08-02T06:27:48.923Z,4416.00
2023-08-02T06:28:48.915Z,4868.00
2023-08-02T06:29:48.892Z,5332.00
2023-08-02T06:30:48.934Z,5936.00
2023-08-02T06:31:48.905Z,6280.00
2023-08-02T06:32:48.870Z,6400.00
2023-08-02T06:33:48.873Z,6672.00
2023-08-02T06:34:48.849Z,6844.00
2023-08-02T06:35:48.861Z,6764.00
2023-08-02T06:36:48.859Z,6832.00
2023-08-02T06:37:48.815Z,7028.00
2023-08-02T06:38:48.824Z,7252.00
2023-08-02T06:39:48.796Z,7472.00
2023-08-02T06:40:48.804Z,7320.00
2023-08-02T06:41:48.777Z,7136.00
2023-08-02T06:42:48.770Z,6732.00
2023-08-02T06:43:48.744Z,6496.00
2023-08-02T06:44:48.805Z,6568.00
2023-08-02T06:45:48.784Z,6420.00
2023-08-02T06:46:48.795Z,6272.00
2023-08-02T06:47:48.761Z,6132.00
2023-08-02T06:48:48.702Z,5916.00
2023-08-02T06:49:48.713Z,5840.00
2023-08-02T06:50:48.689Z,5764.00
2023-08-02T06:51:48.674Z,5660.00
2023-08-02T06:52:48.658Z,5924.00
2023-08-02T06:53:48.672Z,6352.00
2023-08-02T06:54:48.684Z,6776.00
2023-08-02T06:55:48.631Z,6732.00
2023-08-02T06:56:48.621Z,6600.00
2023-08-02T06:57:48.631Z,6624.00
2023-08-02T06:58:48.620Z,6728.00
2023-08-02T06:59:48.631Z,6884.00
2023-08-02T07:00:48.599Z,6932.00
2023-08-02T07:01:48.584Z,6596.00
2023-08-02T07:02:49.156Z,5932.00
2023-08-02T07:03:48.579Z,5312.00
2023-08-02T07:04:48.610Z,4876.00
2023-08-02T07:05:48.548Z,4648.00
2023-08-02T07:06:48.531Z,4764.00
2023-08-02T07:07:48.548Z,5012.00
2023-08-02T07:08:48.560Z,5112.00
2023-08-02T07:09:48.485Z,4904.00
2023-08-02T07:10:48.485Z,4568.00
2023-08-02T07:11:48.831Z,4184.00
2023-08-02T07:12:48.480Z,3896.00
2023-08-02T07:13:48.447Z,3884.00
2023-08-02T07:14:48.444Z,3648.00
2023-08-02T07:15:48.424Z,3408.00
2023-08-02T07:16:48.479Z,3344.00
2023-08-02T07:17:48.740Z,3308.00
2023-08-02T07:18:48.392Z,3448.00
2023-08-02T07:19:48.389Z,3240.00
2023-08-02T07:20:48.390Z,3464.00
2023-08-02T07:21:48.398Z,3832.00
2023-08-02T07:22:48.414Z,4380.00
2023-08-02T07:23:48.343Z,5076.00
2023-08-02T07:24:48.334Z,6184.00
2023-08-02T07:25:48.337Z,6916.00
2023-08-02T07:26:48.340Z,7396.00
2023-08-02T07:27:48.305Z,8224.00
2023-08-02T07:28:48.317Z,7420.00
2023-08-02T07:29:48.303Z,6632.00
2023-08-02T07:30:48.304Z,6496.00
2023-08-02T07:31:48.299Z,6016.00
2023-08-02T07:32:48.279Z,5584.00
2023-08-02T07:33:48.313Z,5396.00
2023-08-02T07:34:48.232Z,4824.00
2023-08-02T07:35:48.240Z,3692.00
2023-08-02T07:36:48.374Z,3168.00
2023-08-02T07:37:48.204Z,3104.00
2023-08-02T07:38:48.195Z,3920.00
2023-08-02T07:39:48.182Z,4332.00
2023-08-02T07:40:48.213Z,4132.00
2023-08-02T07:41:48.155Z,4260.00
2023-08-02T07:42:48.154Z,4864.00
2023-08-02T07:43:48.133Z,5556.00
2023-08-02T07:44:48.130Z,6704.00
2023-08-02T07:45:48.135Z,7360.00
2023-08-02T07:46:48.160Z,8012.00
2023-08-02T07:47:48.125Z,7784.00
2023-08-02T07:48:48.100Z,7052.00
2023-08-02T07:49:48.122Z,6308.00
2023-08-02T07:50:48.091Z,6112.00
2023-08-02T07:51:48.113Z,6760.00
2023-08-02T07:52:48.052Z,5752.00
2023-08-02T07:53:48.076Z,4944.00
2023-08-02T07:54:55.963Z,5472.00
2023-08-02T07:55:50.027Z,5812.00
2023-08-02T07:56:48.007Z,5008.00
2023-08-02T07:57:48.004Z,5068.00
2023-08-02T07:58:47.994Z,5012.00
2023-08-02T07:59:48.008Z,4440.00
2023-08-02T08:00:47.972Z,3984.00
2023-08-02T08:01:48.011Z,3704.00
2023-08-02T08:02:48.007Z,3780.00
2023-08-02T08:03:47.972Z,3504.00
2023-08-02T08:04:47.956Z,3628.00
2023-08-02T08:05:47.931Z,3616.00
2023-08-02T08:06:47.943Z,3652.00
2023-08-02T08:07:47.893Z,3532.00
2023-08-02T08:08:47.912Z,3668.00
2023-08-02T08:09:47.869Z,3520.00
2023-08-02T08:10:47.867Z,3076.00
2023-08-02T08:11:47.846Z,2784.00
2023-08-02T08:12:47.881Z,2536.00
2023-08-02T08:13:47.847Z,2448.00
2023-08-02T08:14:47.825Z,2744.00
2023-08-02T08:15:47.833Z,2860.00
2023-08-02T08:16:47.851Z,3200.00
2023-08-02T08:17:47.885Z,3764.00
2023-08-02T08:18:49.048Z,4268.00
2023-08-02T08:19:47.772Z,4688.00
2023-08-02T08:20:47.764Z,4552.00
2023-08-02T08:21:47.775Z,4136.00
2023-08-02T08:22:47.761Z,4012.00
2023-08-02T08:23:47.722Z,4644.00
2023-08-02T08:24:47.743Z,4936.00
2023-08-02T08:25:47.710Z,5728.00
2023-08-02T08:26:47.704Z,5908.00
2023-08-02T08:27:47.707Z,5248.00
2023-08-02T08:28:47.680Z,4892.00
2023-08-02T08:29:47.683Z,4940.00
2023-08-02T08:30:47.660Z,4856.00
2023-08-02T08:31:47.881Z,4908.00
2023-08-02T08:32:47.683Z,5760.00
2023-08-02T08:33:47.635Z,6684.00
2023-08-02T08:34:47.631Z,8308.00
2023-08-02T08:35:47.617Z,8416.00
2023-08-02T08:36:47.632Z,8796.00
2023-08-02T08:37:47.640Z,9604.00
2023-08-02T08:38:50.202Z,10312.00
2023-08-02T08:39:51.450Z,9708.00
2023-08-02T08:40:48.588Z,9796.00
2023-08-02T08:41:47.565Z,9612.00
2023-08-02T08:42:47.534Z,10160.00
2023-08-02T08:43:47.531Z,10404.00
2023-08-02T08:44:47.529Z,11340.00
2023-08-02T08:45:47.591Z,12288.00
2023-08-02T08:46:47.501Z,11028.00
2023-08-02T08:47:47.526Z,9228.00
2023-08-02T08:48:47.471Z,9448.00
2023-08-02T08:49:47.472Z,10768.00
2023-08-02T08:50:47.491Z,10700.00
2023-08-02T08:51:47.456Z,10908.00
2023-08-02T08:52:47.451Z,10864.00
2023-08-02T08:53:47.422Z,11024.00
2023-08-02T08:54:47.438Z,10056.00
2023-08-02T08:55:47.423Z,7620.00
2023-08-02T08:56:47.397Z,7740.00
2023-08-02T08:57:47.402Z,9672.00
2023-08-02T08:58:47.379Z,9676.00
2023-08-02T08:59:47.395Z,9180.00
2023-08-02T09:00:47.387Z,8588.00
2023-08-02T09:01:47.408Z,8852.00
2023-08-02T09:02:47.406Z,9356.00
2023-08-02T09:03:47.376Z,10504.00
2023-08-02T09:04:47.660Z,10596.00
2023-08-02T09:05:47.299Z,10824.00
2023-08-02T09:06:47.385Z,9824.00
2023-08-02T09:07:47.289Z,9708.00
2023-08-02T09:08:47.289Z,10124.00
2023-08-02T09:09:47.275Z,8796.00
2023-08-02T09:10:47.242Z,7896.00
2023-08-02T09:11:47.240Z,5920.00
2023-08-02T09:12:47.636Z,4964.00
2023-08-02T09:13:47.252Z,4840.00
2023-08-02T09:14:47.207Z,6016.00
2023-08-02T09:15:48.674Z,7672.00
2023-08-02T09:16:47.190Z,8032.00
2023-08-02T09:17:47.240Z,8468.00
2023-08-02T09:18:47.176Z,8992.00
2023-08-02T09:19:48.169Z,8452.00
2023-08-02T09:20:47.158Z,7500.00
2023-08-02T09:21:47.162Z,6968.00
2023-08-02T09:22:47.152Z,7872.00
2023-08-02T09:23:47.150Z,9792.00
2023-08-02T09:24:47.114Z,10296.00
2023-08-02T09:25:47.100Z,11352.00
2023-08-02T09:26:47.090Z,12348.00
2023-08-02T09:27:47.092Z,11600.00
2023-08-02T09:28:47.068Z,10876.00
2023-08-02T09:29:47.058Z,12208.00
2023-08-02T09:30:47.063Z,10616.00
2023-08-02T09:31:47.350Z,9324.00
2023-08-02T09:32:47.171Z,9460.00
2023-08-02T09:33:47.020Z,10352.00
2023-08-02T09:34:47.011Z,10504.00
2023-08-02T09:35:47.038Z,10944.00
2023-08-02T09:36:48.002Z,13512.00
2023-08-02T09:37:47.023Z,13648.00
2023-08-02T09:38:46.959Z,13312.00
2023-08-02T09:39:46.980Z,12992.00
2023-08-02T09:41:26.312Z,10224.00
2023-08-02T09:41:58.631Z,11744.00
2023-08-02T09:42:48.932Z,10244.00
2023-08-02T09:43:46.911Z,9216.00
2023-08-02T09:44:46.922Z,9640.00
2023-08-02T09:45:46.952Z,10428.00
2023-08-02T09:46:46.930Z,12216.00
2023-08-02T09:47:46.877Z,12932.00
2023-08-02T09:48:46.863Z,14860.00
2023-08-02T09:49:46.855Z,14024.00
2023-08-02T09:50:46.865Z,11612.00
2023-08-02T09:51:46.855Z,11736.00
2023-08-02T09:52:46.823Z,9896.00
2023-08-02T09:53:46.824Z,7608.00
2023-08-02T09:54:46.817Z,8552.00
2023-08-02T09:55:46.864Z,8700.00
2023-08-02T09:56:46.785Z,9536.00
2023-08-02T09:57:46.771Z,9372.00
2023-08-02T09:58:46.778Z,8592.00
2023-08-02T09:59:46.818Z,8508.00
2023-08-02T10:00:46.753Z,7800.00
2023-08-02T10:01:47.006Z,7456.00
2023-08-02T10:02:46.751Z,7964.00
2023-08-02T10:03:46.710Z,7464.00
2023-08-02T10:04:46.774Z,6160.00
2023-08-02T10:05:46.711Z,5328.00
2023-08-02T10:06:46.734Z,5424.00
2023-08-02T10:07:46.683Z,6696.00
2023-08-02T10:08:46.695Z,6108.00
2023-08-02T10:09:46.675Z,5536.00
2023-08-02T10:10:46.665Z,5776.00
2023-08-02T10:11:46.651Z,6460.00
2023-08-02T10:12:46.619Z,6160.00
2023-08-02T10:13:46.614Z,5540.00
2023-08-02T10:14:46.617Z,5244.00
2023-08-02T10:15:46.639Z,5340.00
2023-08-02T10:16:46.581Z,5596.00
2023-08-02T10:17:46.607Z,5956.00
2023-08-02T10:18:46.588Z,5340.00
2023-08-02T10:19:46.572Z,5616.00
2023-08-02T10:20:46.545Z,5412.00
2023-08-02T10:21:46.545Z,5652.00
2023-08-02T10:22:46.521Z,5380.00
2023-08-02T10:23:46.542Z,5624.00
2023-08-02T10:24:46.513Z,5668.00
2023-08-02T10:25:46.497Z,5852.00
2023-08-02T10:26:46.548Z,6080.00
2023-08-02T10:27:46.496Z,5888.00
2023-08-02T10:28:46.508Z,5940.00
2023-08-02T10:29:46.465Z,6068.00
2023-08-02T10:30:46.466Z,6108.00
2023-08-02T10:31:46.430Z,5912.00
2023-08-02T10:32:46.521Z,4972.00
2023-08-02T10:33:46.598Z,4256.00
2023-08-02T10:34:46.439Z,3948.00
2023-08-02T10:35:46.417Z,3708.00
2023-08-02T10:36:46.380Z,3612.00
2023-08-02T10:37:46.391Z,3608.00
2023-08-02T10:38:46.360Z,4008.00
2023-08-02T10:39:46.348Z,4344.00
2023-08-02T10:40:46.345Z,4732.00
2023-08-02T10:41:46.358Z,5640.00
2023-08-02T10:42:46.350Z,6328.00
2023-08-02T10:43:46.302Z,7256.00
2023-08-02T10:44:46.298Z,8008.00
2023-08-02T10:45:46.341Z,8112.00
2023-08-02T10:46:46.656Z,8388.00
2023-08-02T10:47:46.292Z,7624.00
2023-08-02T10:48:47.258Z,6164.00
2023-08-02T10:49:46.282Z,5728.00
2023-08-02T10:50:46.242Z,5692.00
2023-08-02T10:51:46.253Z,5908.00
2023-08-02T10:52:46.218Z,5636.00
2023-08-02T10:53:46.220Z,5668.00
2023-08-02T10:54:46.198Z,5972.00
2023-08-02T10:55:46.214Z,6508.00
2023-08-02T10:56:46.193Z,6784.00
2023-08-02T10:57:46.208Z,6600.00
2023-08-02T10:58:46.157Z,5940.00
2023-08-02T10:59:46.144Z,5548.00
2023-08-02T11:00:47.175Z,4992.00
2023-08-02T11:01:46.169Z,5260.00
2023-08-02T11:02:46.166Z,5156.00
2023-08-02T11:03:46.116Z,5060.00
2023-08-02T11:04:46.127Z,4724.00
2023-08-02T11:05:46.116Z,4696.00
2023-08-02T11:06:46.523Z,4568.00
2023-08-02T11:07:46.057Z,4676.00
2023-08-02T11:08:46.071Z,4504.00
2023-08-02T11:09:46.068Z,5100.00
2023-08-02T11:10:46.049Z,5164.00
2023-08-02T11:11:46.722Z,5512.00
2023-08-02T11:12:46.009Z,6164.00
2023-08-02T11:13:45.999Z,5888.00
2023-08-02T11:14:47.271Z,5180.00
2023-08-02T11:15:47.905Z,4748.00
2023-08-02T11:17:54.657Z,5172.00
2023-08-02T11:18:48.069Z,6104.00
2023-08-02T11:20:05.786Z,6788.00
2023-08-02T11:20:48.004Z,6988.00
2023-08-02T11:21:45.915Z,7144.00
2023-08-02T11:22:45.913Z,6988.00
2023-08-02T11:24:46.920Z,7132.00
2023-08-02T11:25:45.896Z,7528.00
2023-08-02T11:28:46.873Z,9836.00
2023-08-02T11:29:45.831Z,8404.00
2023-08-02T11:30:46.879Z,8120.00
2023-08-02T11:31:47.914Z,7904.00
2023-08-02T11:32:46.922Z,7844.00
2023-08-02T11:33:45.829Z,7304.00
2023-08-02T11:34:45.786Z,6408.00
2023-08-02T11:35:45.793Z,5544.00
2023-08-02T11:36:48.043Z,5220.00
2023-08-02T11:37:46.774Z,5260.00
2023-08-02T11:38:45.762Z,5752.00
2023-08-02T11:39:54.994Z,6084.00
2023-08-02T11:40:47.735Z,6120.00
2023-08-02T11:41:45.725Z,7100.00
2023-08-02T11:42:45.744Z,7160.00
2023-08-02T11:43:45.697Z,6864.00
2023-08-02T11:44:49.630Z,7684.00
2023-08-02T11:45:47.670Z,8636.00
2023-08-02T11:46:45.931Z,9700.00
2023-08-02T11:47:48.600Z,8932.00
2023-08-02T11:48:46.671Z,7664.00
2023-08-02T11:49:45.626Z,7660.00
2023-08-02T11:50:45.676Z,6520.00
2023-08-02T11:51:45.721Z,6344.00
2023-08-02T11:52:45.639Z,6628.00
2023-08-02T11:53:45.594Z,7216.00
2023-08-02T11:54:45.592Z,7384.00
2023-08-02T11:55:45.575Z,8156.00
2023-08-02T11:56:46.216Z,8368.00
2023-08-02T11:57:45.557Z,7804.00
2023-08-02T11:58:45.541Z,6688.00
2023-08-02T11:59:45.570Z,6560.00
2023-08-02T12:00:45.526Z,5904.00
2023-08-02T12:01:45.572Z,5388.00
2023-08-02T12:02:45.533Z,5096.00
2023-08-02T12:03:45.538Z,5152.00
2023-08-02T12:04:45.504Z,5544.00
2023-08-02T12:05:45.609Z,5736.00
2023-08-02T12:06:45.735Z,6140.00
2023-08-02T12:07:45.460Z,5812.00
2023-08-02T12:08:45.436Z,5352.00
2023-08-02T12:09:45.445Z,5552.00
2023-08-02T12:10:45.513Z,5968.00
2023-08-02T12:11:45.454Z,6912.00
2023-08-02T12:12:45.406Z,7116.00
2023-08-02T12:13:45.405Z,6796.00
2023-08-02T12:14:45.407Z,7212.00
2023-08-02T12:15:45.398Z,7760.00
2023-08-02T12:16:45.741Z,7860.00
2023-08-02T12:17:45.374Z,8236.00
2023-08-02T12:18:45.344Z,7308.00
2023-08-02T12:19:48.012Z,8444.00
2023-08-02T12:20:46.356Z,7576.00
2023-08-02T12:21:45.328Z,8140.00
2023-08-02T12:22:45.302Z,8024.00
2023-08-02T12:23:45.298Z,8652.00
2023-08-02T12:24:45.363Z,9356.00
2023-08-02T12:25:47.663Z,8588.00
2023-08-02T12:26:46.476Z,7296.00
2023-08-02T12:27:45.262Z,6536.00
2023-08-02T12:28:45.248Z,5544.00
2023-08-02T12:29:45.276Z,5328.00
2023-08-02T12:30:45.299Z,5596.00